createdAt,value
2023-06-11T00:01:45.664Z,64.28
2023-06-11T00:04:12.319Z,64.74
2023-06-11T00:06:39.017Z,64.37
2023-06-11T00:09:05.686Z,64.34
2023-06-11T00:11:32.182Z,63.79
2023-06-11T00:13:58.726Z,63.20
2023-06-11T00:16:25.267Z,63.46
2023-06-11T00:18:51.821Z,63.58
2023-06-11T00:21:18.339Z,64.12
2023-06-11T00:23:44.915Z,63.87
2023-06-11T00:26:11.493Z,63.89
2023-06-11T00:28:38.035Z,63.67
2023-06-11T00:31:04.748Z,63.47
2023-06-11T00:33:31.372Z,64.39
2023-06-11T00:35:58.187Z,64.24
2023-06-11T00:38:24.708Z,64.52
2023-06-11T00:40:51.233Z,64.53
2023-06-11T00:43:17.746Z,64.58
2023-06-11T00:45:44.487Z,64.42
2023-06-11T00:48:11.071Z,64.69
2023-06-11T00:50:38.667Z,64.52
2023-06-11T00:53:05.168Z,64.51
2023-06-11T00:55:31.680Z,64.99
2023-06-11T00:57:58.223Z,65.20
2023-06-11T01:00:24.747Z,65.42
2023-06-11T01:02:59.352Z,65.49
2023-06-11T01:05:26.889Z,65.81
2023-06-11T01:07:54.937Z,65.37
2023-06-11T01:10:21.911Z,65.31
2023-06-11T01:12:49.295Z,65.08
2023-06-11T01:15:15.914Z,64.60
2023-06-11T01:17:56.031Z,64.64
2023-06-11T01:20:31.145Z,65.51
2023-06-11T01:23:17.359Z,66.08
2023-06-11T01:25:55.743Z,65.74
2023-06-11T01:28:24.570Z,65.99
2023-06-11T01:30:53.503Z,65.45
2023-06-11T01:33:20.824Z,66.12
2023-06-11T01:35:48.473Z,66.69
2023-06-11T01:38:15.023Z,66.60
2023-06-11T01:40:41.818Z,66.23
2023-06-11T01:43:08.410Z,66.61
2023-06-11T01:45:34.945Z,66.16
2023-06-11T01:48:01.485Z,67.08
2023-06-11T01:50:28.033Z,67.80
2023-06-11T01:52:54.558Z,67.51
2023-06-11T01:55:21.104Z,67.45
2023-06-11T01:57:47.688Z,66.99
2023-06-11T02:00:14.451Z,66.83
2023-06-11T02:02:43.605Z,66.87
2023-06-11T02:05:10.525Z,66.56
2023-06-11T02:07:37.186Z,66.97
2023-06-11T02:10:04.100Z,66.79
2023-06-11T02:12:30.881Z,67.38
2023-06-11T02:14:57.411Z,66.85
2023-06-11T02:17:23.949Z,67.27
2023-06-11T02:19:50.603Z,67.06
2023-06-11T02:22:17.134Z,67.50
2023-06-11T02:24:43.644Z,67.58
2023-06-11T02:27:10.235Z,67.26
2023-06-11T02:29:36.745Z,67.08
2023-06-11T02:32:05.296Z,66.91
2023-06-11T02:34:31.866Z,67.40
2023-06-11T02:36:58.362Z,67.02
2023-06-11T02:39:25.078Z,67.05
2023-06-11T02:41:51.581Z,67.22
2023-06-11T02:44:18.213Z,67.10
2023-06-11T02:46:44.841Z,67.14
2023-06-11T02:49:11.435Z,67.10
2023-06-11T02:51:37.929Z,67.15
2023-06-11T02:54:04.610Z,66.78
2023-06-11T02:56:31.121Z,67.13
2023-06-11T02:58:57.617Z,66.57
2023-06-11T03:01:24.270Z,67.04
2023-06-11T03:03:50.917Z,67.63
2023-06-11T03:06:17.506Z,67.59
2023-06-11T03:08:44.016Z,68.02
2023-06-11T03:11:10.533Z,67.63
2023-06-11T03:13:37.091Z,67.60
2023-06-11T03:16:03.861Z,67.31
2023-06-11T03:18:30.411Z,66.86
2023-06-11T03:20:56.915Z,67.10
2023-06-11T03:23:23.417Z,68.12
2023-06-11T03:25:49.917Z,67.26
2023-06-11T03:28:17.016Z,67.62
2023-06-11T03:30:43.534Z,67.46
2023-06-11T03:33:10.163Z,67.77
2023-06-11T03:35:36.665Z,67.46
2023-06-11T03:38:03.231Z,67.63
2023-06-11T03:40:29.739Z,67.07
2023-06-11T03:42:58.387Z,67.29
2023-06-11T03:45:26.420Z,67.44
2023-06-11T03:47:52.934Z,67.77
2023-06-11T03:50:19.787Z,67.10
2023-06-11T03:52:46.289Z,67.54
2023-06-11T03:55:12.987Z,67.37
2023-06-11T03:57:39.777Z,66.94
2023-06-11T04:00:07.249Z,66.81
2023-06-11T04:02:33.878Z,67.77
2023-06-11T04:05:00.541Z,67.33
2023-06-11T04:07:27.104Z,67.30
2023-06-11T04:09:53.634Z,66.70
2023-06-11T04:12:20.238Z,67.66
2023-06-11T04:14:46.777Z,67.42
2023-06-11T04:17:13.395Z,68.26
2023-06-11T04:19:39.968Z,68.43
2023-06-11T04:22:06.531Z,68.45
2023-06-11T04:24:33.061Z,68.34
2023-06-11T04:26:59.594Z,67.83
2023-06-11T04:29:26.095Z,67.98
2023-06-11T04:31:52.716Z,67.93
2023-06-11T04:34:19.337Z,67.33
2023-06-11T04:36:45.825Z,67.58
2023-06-11T04:39:12.377Z,67.90
2023-06-11T04:41:38.957Z,67.84
2023-06-11T04:44:05.638Z,67.93
2023-06-11T04:46:32.365Z,67.59
2023-06-11T04:49:00.299Z,67.33
2023-06-11T04:51:27.534Z,68.41
2023-06-11T04:53:54.132Z,67.75
2023-06-11T04:56:21.716Z,67.80
2023-06-11T04:58:48.274Z,67.78
2023-06-11T05:01:14.791Z,67.74
2023-06-11T05:03:41.387Z,67.76
2023-06-11T05:06:07.888Z,67.76
2023-06-11T05:08:34.400Z,67.49
2023-06-11T05:11:00.993Z,67.84
2023-06-11T05:13:28.081Z,67.14
2023-06-11T05:15:55.826Z,67.03
2023-06-11T05:18:23.726Z,67.05
2023-06-11T05:20:50.400Z,66.87
2023-06-11T05:23:17.094Z,67.10
2023-06-11T05:25:43.744Z,67.14
2023-06-11T05:28:10.254Z,66.42
2023-06-11T05:30:37.007Z,65.89
2023-06-11T05:33:04.012Z,65.82
2023-06-11T05:35:30.598Z,65.60
2023-06-11T05:37:57.123Z,65.23
2023-06-11T05:40:23.683Z,64.75
2023-06-11T05:42:50.408Z,64.94
2023-06-11T05:45:16.959Z,65.22
2023-06-11T05:47:43.544Z,64.77
2023-06-11T05:50:10.764Z,64.69
2023-06-11T05:52:37.266Z,64.54
2023-06-11T05:55:04.487Z,64.23
2023-06-11T05:57:31.076Z,63.81
2023-06-11T05:59:57.583Z,63.09
2023-06-11T06:02:24.169Z,62.06
2023-06-11T06:04:50.778Z,62.62
2023-06-11T06:07:17.578Z,62.03
2023-06-11T06:09:44.411Z,61.43
2023-06-11T06:12:11.112Z,61.15
2023-06-11T06:14:37.607Z,60.72
2023-06-11T06:17:04.349Z,60.00
2023-06-11T06:19:30.917Z,59.94
2023-06-11T06:21:57.523Z,58.94
2023-06-11T06:24:24.180Z,58.84
2023-06-11T06:26:50.832Z,58.52
2023-06-11T06:29:17.360Z,59.31
2023-06-11T06:31:44.000Z,59.17
2023-06-11T06:34:10.581Z,59.25
2023-06-11T06:36:37.120Z,59.15
2023-06-11T06:39:03.672Z,58.43
2023-06-11T06:41:30.165Z,58.39
2023-06-11T06:43:59.304Z,57.84
2023-06-11T06:46:26.730Z,58.38
2023-06-11T06:48:53.414Z,58.22
2023-06-11T06:51:20.109Z,58.01
2023-06-11T06:53:47.132Z,57.97
2023-06-11T06:56:13.789Z,58.83
2023-06-11T06:58:40.474Z,58.44
2023-06-11T07:01:07.110Z,58.26
2023-06-11T07:03:33.644Z,58.86
2023-06-11T07:06:01.008Z,59.24
2023-06-11T07:08:27.628Z,58.58
2023-06-11T07:10:55.654Z,58.25
2023-06-11T07:13:44.323Z,58.27
2023-06-11T07:16:10.882Z,58.53
2023-06-11T07:18:38.132Z,58.39
2023-06-11T07:21:04.709Z,58.04
2023-06-11T07:23:31.208Z,57.95
2023-06-11T07:25:57.778Z,58.72
2023-06-11T07:28:24.302Z,57.63
2023-06-11T07:30:50.949Z,57.42
2023-06-11T07:33:17.508Z,57.02
2023-06-11T07:35:44.389Z,56.86
2023-06-11T07:38:11.578Z,57.36
2023-06-11T07:40:38.179Z,57.30
2023-06-11T07:43:04.686Z,57.08
2023-06-11T07:45:31.221Z,56.67
2023-06-11T07:47:57.783Z,56.36
2023-06-11T07:50:24.390Z,56.83
2023-06-11T07:52:50.942Z,56.65
2023-06-11T07:55:17.470Z,55.71
2023-06-11T07:57:43.988Z,55.75
2023-06-11T08:00:11.428Z,55.46
2023-06-11T08:02:38.320Z,55.92
2023-06-11T08:05:05.099Z,55.72
2023-06-11T08:07:31.674Z,55.80
2023-06-11T08:09:58.172Z,56.14
2023-06-11T08:12:39.818Z,56.06
2023-06-11T08:15:06.991Z,55.32
2023-06-11T08:17:35.642Z,55.16
2023-06-11T08:20:02.631Z,55.74
2023-06-11T08:22:29.115Z,55.70
2023-06-11T08:24:55.606Z,55.63
2023-06-11T08:27:22.100Z,55.73
2023-06-11T08:32:32.344Z,56.17
2023-06-11T08:34:58.853Z,55.46
2023-06-11T08:37:25.372Z,55.90
2023-06-11T08:39:51.904Z,55.65
2023-06-11T08:42:18.544Z,55.77
2023-06-11T08:44:45.635Z,55.61
2023-06-11T08:47:12.360Z,55.65
2023-06-11T08:49:49.958Z,55.25
2023-06-11T08:52:18.479Z,55.69
2023-06-11T08:54:45.012Z,54.72
2023-06-11T08:57:11.557Z,54.32
2023-06-11T08:59:38.096Z,54.31
2023-06-11T09:02:07.331Z,54.02
2023-06-11T09:04:33.964Z,53.81
2023-06-11T09:07:01.618Z,53.82
2023-06-11T09:09:28.177Z,53.73
2023-06-11T09:11:54.683Z,54.31
2023-06-11T09:14:21.980Z,54.32
2023-06-11T09:16:49.240Z,54.92
2023-06-11T09:19:20.953Z,54.78
2023-06-11T09:21:56.139Z,54.39
2023-06-11T09:24:24.820Z,54.29
2023-06-11T09:26:59.114Z,54.61
2023-06-11T09:29:28.155Z,54.88
2023-06-11T09:32:23.720Z,55.02
2023-06-11T09:35:01.017Z,54.76
2023-06-11T09:37:34.442Z,54.26
2023-06-11T09:40:01.072Z,54.47
2023-06-11T09:42:29.984Z,53.83
2023-06-11T09:44:59.903Z,52.85
2023-06-11T09:47:29.494Z,53.00
2023-06-11T09:49:59.270Z,52.96
2023-06-11T09:52:28.172Z,53.81
2023-06-11T09:54:55.919Z,54.25
2023-06-11T09:57:23.018Z,54.42
2023-06-11T09:59:54.130Z,54.48
2023-06-11T10:02:21.026Z,55.16
2023-06-11T10:04:47.741Z,55.00
2023-06-11T10:07:16.658Z,53.84
2023-06-11T10:09:45.167Z,53.78
2023-06-11T10:12:14.673Z,53.37
2023-06-11T10:14:50.680Z,52.74
2023-06-11T10:17:17.409Z,52.56
2023-06-11T10:19:49.220Z,51.69
2023-06-11T10:22:22.653Z,51.91
2023-06-11T10:25:03.290Z,51.90
2023-06-11T10:27:37.948Z,51.96
2023-06-11T10:30:08.625Z,51.59
2023-06-11T10:32:35.903Z,51.17
2023-06-11T10:35:05.014Z,51.03
2023-06-11T10:37:34.684Z,51.17
2023-06-11T10:40:01.274Z,50.93
2023-06-11T10:42:34.577Z,51.61
2023-06-11T10:45:01.187Z,51.08
2023-06-11T10:47:29.217Z,51.05
2023-06-11T10:50:10.669Z,51.51
2023-06-11T10:52:48.961Z,50.81
2023-06-11T10:55:21.580Z,50.70
2023-06-11T10:57:52.277Z,50.64
2023-06-11T11:00:19.328Z,49.29
2023-06-11T11:02:47.388Z,50.17
2023-06-11T11:05:14.233Z,48.98
2023-06-11T11:07:41.080Z,48.40
2023-06-11T11:10:08.620Z,47.73
2023-06-11T11:12:39.170Z,48.40
2023-06-11T11:15:06.223Z,48.29
2023-06-11T11:17:34.167Z,48.27
2023-06-11T11:20:00.862Z,47.74
2023-06-11T11:22:29.141Z,44.73
2023-06-11T11:25:00.778Z,44.89
2023-06-11T11:27:27.852Z,44.72
2023-06-11T11:29:54.782Z,44.69
2023-06-11T11:32:22.755Z,44.60
2023-06-11T11:34:49.462Z,44.48
2023-06-11T11:37:16.226Z,44.10
2023-06-11T11:39:42.853Z,42.43
2023-06-11T11:42:09.367Z,42.37
2023-06-11T11:44:43.209Z,37.53
2023-06-11T11:47:10.878Z,38.62
2023-06-11T11:49:38.343Z,38.13
2023-06-11T11:52:08.375Z,37.02
2023-06-11T11:54:35.108Z,37.10
2023-06-11T11:57:07.940Z,38.27
2023-06-11T11:59:38.684Z,38.63
2023-06-11T12:02:05.596Z,38.45
2023-06-11T12:04:35.814Z,39.01
2023-06-11T12:07:03.945Z,38.20
2023-06-11T12:09:30.456Z,38.25
2023-06-11T12:12:05.016Z,37.15
2023-06-11T12:14:32.313Z,36.49
2023-06-11T12:16:58.910Z,36.46
2023-06-11T12:19:25.832Z,36.75
2023-06-11T12:21:52.375Z,36.63
2023-06-11T12:24:19.246Z,35.69
2023-06-11T12:26:50.868Z,35.70
2023-06-11T12:29:18.664Z,36.67
2023-06-11T12:31:45.375Z,35.50
2023-06-11T12:34:11.880Z,37.95
2023-06-11T12:36:38.403Z,37.23
2023-06-11T12:39:05.034Z,35.66
2023-06-11T12:41:32.376Z,36.66
2023-06-11T12:43:59.245Z,38.23
2023-06-11T12:46:25.882Z,38.47
2023-06-11T12:48:52.409Z,40.04
2023-06-11T12:51:18.968Z,39.26
2023-06-11T12:53:45.484Z,39.56
2023-06-11T12:56:11.989Z,39.54
2023-06-11T12:58:38.488Z,37.80
2023-06-11T13:01:05.189Z,37.71
2023-06-11T13:03:31.840Z,36.33
2023-06-11T13:05:58.390Z,35.07
2023-06-11T13:08:25.276Z,34.43
2023-06-11T13:10:52.034Z,31.53
2023-06-11T13:13:18.548Z,32.37
2023-06-11T13:15:45.058Z,31.41
2023-06-11T13:18:11.654Z,30.19
2023-06-11T13:20:38.182Z,30.51
2023-06-11T13:23:04.770Z,27.69
2023-06-11T13:25:31.322Z,25.39
2023-06-11T13:27:57.873Z,27.73
2023-06-11T13:30:24.425Z,28.76
2023-06-11T13:32:51.006Z,30.37
2023-06-11T13:35:17.620Z,28.26
2023-06-11T13:37:44.253Z,26.69
2023-06-11T13:40:11.145Z,24.84
2023-06-11T13:42:38.125Z,23.86
2023-06-11T13:45:05.861Z,23.49
2023-06-11T13:47:32.519Z,23.22
2023-06-11T13:49:59.150Z,21.84
2023-06-11T13:52:25.694Z,22.53
2023-06-11T13:54:52.366Z,24.17
2023-06-11T13:57:18.963Z,24.42
2023-06-11T13:59:45.472Z,25.04
2023-06-11T14:02:12.104Z,24.58
2023-06-11T14:04:38.688Z,24.30
2023-06-11T14:07:05.355Z,25.69
2023-06-11T14:09:31.882Z,25.74
2023-06-11T14:11:58.405Z,27.24
2023-06-11T14:14:24.932Z,28.95
2023-06-11T14:16:51.802Z,29.98
2023-06-11T14:19:18.507Z,30.38
2023-06-11T14:21:45.088Z,30.91
2023-06-11T14:24:11.632Z,31.31
2023-06-11T14:26:38.209Z,33.42
2023-06-11T14:29:04.722Z,34.35
2023-06-11T14:31:31.345Z,33.71
2023-06-11T14:33:57.847Z,33.65
2023-06-11T14:36:24.428Z,32.50
2023-06-11T14:38:50.976Z,32.69
2023-06-11T14:41:17.666Z,32.73
2023-06-11T14:43:44.240Z,32.72
2023-06-11T14:46:10.791Z,32.04
2023-06-11T14:48:37.354Z,32.49
2023-06-11T14:51:06.360Z,33.12
2023-06-11T14:53:33.022Z,33.40
2023-06-11T14:55:59.802Z,33.11
2023-06-11T14:58:26.392Z,32.17
2023-06-11T15:00:53.056Z,32.98
2023-06-11T15:03:19.631Z,32.09
2023-06-11T15:05:46.288Z,33.12
2023-06-11T15:08:12.824Z,35.05
2023-06-11T15:10:40.420Z,34.58
2023-06-11T15:13:07.193Z,33.88
2023-06-11T15:15:33.702Z,33.86
2023-06-11T15:18:00.315Z,33.66
2023-06-11T15:20:26.906Z,32.65
2023-06-11T15:22:53.417Z,30.50
2023-06-11T15:25:19.914Z,29.51
2023-06-11T15:27:46.429Z,28.65
2023-06-11T15:30:13.289Z,28.84
2023-06-11T15:32:40.029Z,28.86
2023-06-11T15:35:07.055Z,28.87
2023-06-11T15:37:33.687Z,27.58
2023-06-11T15:40:00.936Z,26.69
2023-06-11T15:42:27.570Z,27.06
2023-06-11T15:44:54.161Z,26.61
2023-06-11T15:47:20.816Z,28.04
2023-06-11T15:49:47.398Z,28.82
2023-06-11T15:52:14.093Z,29.61
2023-06-11T15:54:40.695Z,29.89
2023-06-11T15:57:07.467Z,29.92
2023-06-11T15:59:34.078Z,30.54
2023-06-11T16:02:00.667Z,30.52
2023-06-11T16:04:27.320Z,30.63
2023-06-11T16:06:53.942Z,30.87
2023-06-11T16:09:20.489Z,30.68
2023-06-11T16:11:47.019Z,29.94
2023-06-11T16:14:13.591Z,29.78
2023-06-11T16:16:40.161Z,29.79
2023-06-11T16:19:06.721Z,30.89
2023-06-11T16:21:33.223Z,31.18
2023-06-11T16:23:59.787Z,31.08
2023-06-11T16:26:26.319Z,31.92
2023-06-11T16:28:52.954Z,31.63
2023-06-11T16:31:19.507Z,31.40
2023-06-11T16:33:57.314Z,31.06
2023-06-11T16:36:25.205Z,31.17
2023-06-11T16:38:51.713Z,31.85
2023-06-11T16:41:18.779Z,32.33
2023-06-11T16:43:45.295Z,32.78
2023-06-11T16:46:11.818Z,32.86
2023-06-11T16:48:38.438Z,32.65
2023-06-11T16:51:04.974Z,33.61
2023-06-11T16:53:31.603Z,33.71
2023-06-11T16:55:58.095Z,33.56
2023-06-11T16:58:24.608Z,34.51
2023-06-11T17:00:51.209Z,35.59
2023-06-11T17:03:17.777Z,34.77
2023-06-11T17:05:44.676Z,35.33
2023-06-11T17:08:11.279Z,35.38
2023-06-11T17:10:37.817Z,34.32
2023-06-11T17:13:04.383Z,34.73
2023-06-11T17:15:30.916Z,34.96
2023-06-11T17:17:57.542Z,38.17
2023-06-11T17:20:24.102Z,39.60
2023-06-11T17:22:50.673Z,41.30
2023-06-11T17:25:17.512Z,41.80
2023-06-11T17:27:44.607Z,43.85
2023-06-11T17:30:11.707Z,45.53
2023-06-11T17:32:38.580Z,44.52
2023-06-11T17:35:05.715Z,45.63
2023-06-11T17:37:32.207Z,46.38
2023-06-11T17:39:58.763Z,45.87
2023-06-11T17:42:25.322Z,45.92
2023-06-11T17:44:52.018Z,45.74
2023-06-11T17:47:18.727Z,44.90
2023-06-11T17:49:49.449Z,44.16
2023-06-11T17:52:16.577Z,44.15
2023-06-11T17:54:43.217Z,45.91
2023-06-11T17:57:09.878Z,46.26
2023-06-11T17:59:36.446Z,45.61
2023-06-11T18:02:05.569Z,47.77
2023-06-11T18:04:32.361Z,47.66
2023-06-11T18:06:58.870Z,48.52
2023-06-11T18:09:25.391Z,48.98
2023-06-11T18:11:51.934Z,49.30
2023-06-11T18:14:18.506Z,49.54
2023-06-11T18:16:45.114Z,49.96
2023-06-11T18:19:11.763Z,51.04
2023-06-11T18:21:38.444Z,50.80
2023-06-11T18:24:05.470Z,50.65
2023-06-11T18:26:33.722Z,51.44
2023-06-11T18:29:00.278Z,51.49
2023-06-11T18:31:26.866Z,50.83
2023-06-11T18:33:54.105Z,51.21
2023-06-11T18:36:20.620Z,52.49
2023-06-11T18:38:47.154Z,51.69
2023-06-11T18:41:13.686Z,51.63
2023-06-11T18:43:40.175Z,52.31
2023-06-11T18:46:06.762Z,52.34
2023-06-11T18:48:33.412Z,52.49
2023-06-11T18:50:59.936Z,53.21
2023-06-11T18:53:26.480Z,53.23
2023-06-11T18:55:53.000Z,53.29
2023-06-11T18:58:19.502Z,53.40
2023-06-11T19:00:49.093Z,53.70
2023-06-11T19:03:15.686Z,53.34
2023-06-11T19:05:42.311Z,52.78
2023-06-11T19:08:08.862Z,52.70
2023-06-11T19:10:35.664Z,52.72
2023-06-11T19:13:02.201Z,53.11
2023-06-11T19:15:28.730Z,52.56
2023-06-11T19:17:55.313Z,52.68
2023-06-11T19:20:21.942Z,52.65
2023-06-11T19:22:48.438Z,52.25
2023-06-11T19:25:14.980Z,52.71
2023-06-11T19:27:41.560Z,52.61
2023-06-11T19:30:08.390Z,53.45
2023-06-11T19:32:35.080Z,53.38
2023-06-11T19:35:01.878Z,54.39
2023-06-11T19:37:28.399Z,53.81
2023-06-11T19:39:54.927Z,53.54
2023-06-11T19:42:21.492Z,52.57
2023-06-11T19:44:48.015Z,52.40
2023-06-11T19:47:14.788Z,51.31
2023-06-11T19:49:41.358Z,50.38
2023-06-11T19:52:08.028Z,50.24
2023-06-11T19:54:50.016Z,49.78
2023-06-11T19:57:18.921Z,48.97
2023-06-11T19:59:45.610Z,48.93
2023-06-11T20:02:12.276Z,49.83
2023-06-11T20:04:38.865Z,49.79
2023-06-11T20:07:05.589Z,49.91
2023-06-11T20:09:32.172Z,49.29
2023-06-11T20:11:58.675Z,49.06
2023-06-11T20:14:25.206Z,49.05
2023-06-11T20:16:51.845Z,48.82
2023-06-11T20:19:21.581Z,48.04
2023-06-11T20:21:48.178Z,48.05
2023-06-11T20:24:14.791Z,46.70
2023-06-11T20:26:41.373Z,46.04
2023-06-11T20:29:07.880Z,45.33
2023-06-11T20:31:34.449Z,44.61
2023-06-11T20:34:00.963Z,43.79
2023-06-11T20:36:27.486Z,43.07
2023-06-11T20:38:54.021Z,43.05
2023-06-11T20:41:20.542Z,42.47
2023-06-11T20:43:47.058Z,41.87
2023-06-11T20:46:27.899Z,41.15
2023-06-11T20:48:55.229Z,41.12
2023-06-11T20:51:21.787Z,40.86
2023-06-11T20:53:48.320Z,40.41
2023-06-11T20:56:14.873Z,40.31
2023-06-11T20:58:41.424Z,39.64
2023-06-11T21:01:08.051Z,40.00
2023-06-11T21:03:34.704Z,39.60
2023-06-11T21:06:01.267Z,39.68
2023-06-11T21:08:27.765Z,40.01
2023-06-11T21:10:54.272Z,40.36
2023-06-11T21:13:20.808Z,40.73
2023-06-11T21:15:47.439Z,41.15
2023-06-11T21:18:14.002Z,42.75
2023-06-11T21:20:40.632Z,42.64
2023-06-11T21:23:07.528Z,43.35
2023-06-11T21:25:34.304Z,43.41
2023-06-11T21:28:00.973Z,44.14
2023-06-11T21:30:27.484Z,45.55
2023-06-11T21:32:54.049Z,45.57
2023-06-11T21:35:20.589Z,46.27
2023-06-11T21:37:47.119Z,46.68
2023-06-11T21:40:14.114Z,46.80
2023-06-11T21:42:40.900Z,46.76
2023-06-11T21:45:07.826Z,46.51
2023-06-11T21:47:36.969Z,46.27
2023-06-11T21:50:03.675Z,45.93
2023-06-11T21:52:30.164Z,45.36
2023-06-11T21:54:56.693Z,45.55
2023-06-11T21:57:23.496Z,46.29
2023-06-11T21:59:50.129Z,46.17
2023-06-11T22:02:16.672Z,46.33
2023-06-11T22:04:43.211Z,45.90
2023-06-11T22:07:10.219Z,45.82
2023-06-11T22:09:36.744Z,45.37
2023-06-11T22:12:03.484Z,45.11
2023-06-11T22:14:30.018Z,44.35
2023-06-11T22:16:56.967Z,43.69
2023-06-11T22:19:23.695Z,43.53
2023-06-11T22:21:53.160Z,42.93
2023-06-11T22:24:19.882Z,42.72
2023-06-11T22:26:46.482Z,42.05
2023-06-11T22:29:13.273Z,41.93
2023-06-11T22:31:41.178Z,42.02
2023-06-11T22:34:07.954Z,43.83
2023-06-11T22:36:34.549Z,43.93
2023-06-11T22:39:01.119Z,43.98
2023-06-11T22:41:27.701Z,44.57
2023-06-11T22:43:54.234Z,44.21
2023-06-11T22:46:20.857Z,44.03
2023-06-11T22:48:47.452Z,44.26
2023-06-11T22:51:14.150Z,43.99
2023-06-11T22:53:40.682Z,44.30
2023-06-11T22:56:07.204Z,44.23
2023-06-11T22:58:33.753Z,44.01
2023-06-11T23:01:00.276Z,44.37
2023-06-11T23:03:26.846Z,44.38
2023-06-11T23:05:53.521Z,45.44
2023-06-11T23:08:20.032Z,44.94
2023-06-11T23:10:46.576Z,45.25
2023-06-11T23:13:13.166Z,45.33
2023-06-11T23:15:39.664Z,45.35
2023-06-11T23:18:07.404Z,45.84
2023-06-11T23:20:34.199Z,45.57
2023-06-11T23:23:00.701Z,45.90
2023-06-11T23:25:27.235Z,45.91
2023-06-11T23:27:54.281Z,46.40
2023-06-11T23:30:21.532Z,46.41
2023-06-11T23:32:48.173Z,46.97
2023-06-11T23:35:15.430Z,46.82
2023-06-11T23:37:43.128Z,48.54
2023-06-11T23:40:10.745Z,48.21
2023-06-11T23:42:37.427Z,48.46
2023-06-11T23:45:04.100Z,48.61
2023-06-11T23:47:30.748Z,49.01
2023-06-11T23:49:57.752Z,49.26
2023-06-11T23:52:24.279Z,49.34
2023-06-11T23:54:50.873Z,49.50
2023-06-11T23:57:17.412Z,49.61
2023-06-11T23:59:44.635Z,49.71
